Time;durP1;ratioP1;P1;durP2;ratioP2;P2;SDS_P1;SDS_P2;PMS_P1;PMS_P2;Temp;Humidity;BMP_temperature;BMP_pressure;BME280_temperature;BME280_humidity;BME280_pressure;Samples;Min_cycle;Max_cycle;Signal;HPM_P1;HPM_P2
2021/03/15 00:00:34;;;;;;;13.17;3.57;;;5.40;99.90;;;;;;5014835;28;20333;-50
2021/03/15 00:03:27;;;;;;;11.73;2.53;;;5.40;99.90;;;;;;5009326;28;20236;-50
2021/03/15 00:05:59;;;;;;;10.40;2.10;;;5.50;99.90;;;;;;5010335;28;20233;-50
2021/03/15 00:08:27;;;;;;;10.57;2.37;;;5.40;99.90;;;;;;5011528;28;20886;-50
2021/03/15 00:10:56;;;;;;;12.60;2.37;;;5.40;99.90;;;;;;5036412;28;20473;-51
2021/03/15 00:13:24;;;;;;;8.97;2.00;;;5.40;99.90;;;;;;5029140;28;20336;-50
2021/03/15 00:15:54;;;;;;;7.30;1.80;;;5.40;99.90;;;;;;5043756;28;20695;-50
2021/03/15 00:18:21;;;;;;;7.63;1.90;;;5.40;99.90;;;;;;5051262;28;20265;-50
2021/03/15 00:20:49;;;;;;;7.93;1.70;;;5.40;99.90;;;;;;5012758;28;20233;-50
2021/03/15 00:23:17;;;;;;;8.07;1.90;;;5.40;99.90;;;;;;5011404;28;20240;-50
2021/03/15 00:25:44;;;;;;;11.23;1.90;;;5.40;99.90;;;;;;5025008;28;20566;-51
2021/03/15 00:28:13;;;;;;;7.07;1.93;;;5.40;99.90;;;;;;5010666;28;20396;-50
2021/03/15 00:30:41;;;;;;;6.67;1.70;;;5.40;99.90;;;;;;5010623;28;20243;-50
2021/03/15 00:33:08;;;;;;;5.40;1.80;;;5.40;99.90;;;;;;5011279;28;20244;-51
2021/03/15 00:35:36;;;;;;;5.93;1.83;;;5.40;99.90;;;;;;5011465;28;20720;-52
2021/03/15 00:38:04;;;;;;;8.30;2.10;;;5.40;99.90;;;;;;5035302;28;20263;-50
2021/03/15 00:40:31;;;;;;;7.67;1.90;;;5.40;99.90;;;;;;5010543;28;20308;-50
2021/03/15 00:43:00;;;;;;;8.30;2.03;;;5.40;99.90;;;;;;5013538;28;20239;-50
2021/03/15 00:45:29;;;;;;;9.10;2.27;;;5.30;99.90;;;;;;5030683;28;20239;-51
2021/03/15 00:47:57;;;;;;;10.63;2.17;;;5.30;99.90;;;;;;5031687;28;20475;-50
2021/03/15 00:50:28;;;;;;;11.47;2.60;;;5.30;99.90;;;;;;5027844;28;20247;-50
2021/03/15 00:52:57;;;;;;;8.43;2.20;;;5.30;99.90;;;;;;5045793;28;20497;-50
2021/03/15 00:55:25;;;;;;;11.47;2.70;;;5.30;99.90;;;;;;5045660;28;20555;-50
2021/03/15 00:57:54;;;;;;;11.83;2.87;;;5.30;99.90;;;;;;5033774;28;20827;-50
2021/03/15 01:00:32;;;;;;;11.50;2.80;;;5.20;99.90;;;;;;5047060;28;20234;-50
2021/03/15 01:03:23;;;;;;;11.53;2.30;;;5.20;99.90;;;;;;4993045;28;20311;-50
2021/03/15 01:05:58;;;;;;;9.93;2.70;;;5.20;99.90;;;;;;5026933;28;20545;-50
2021/03/15 01:08:38;;;;;;;11.37;2.70;;;5.20;99.90;;;;;;5027976;28;20479;-50
2021/03/15 01:11:11;;;;;;;13.57;3.00;;;5.20;99.90;;;;;;5058107;28;20470;-50
2021/03/15 01:13:43;;;;;;;14.47;3.10;;;5.20;99.90;;;;;;5058583;28;20239;-50
2021/03/15 01:16:14;;;;;;;18.90;3.33;;;5.10;99.90;;;;;;5029853;28;20544;-50
2021/03/15 01:18:43;;;;;;;16.40;3.57;;;5.10;99.90;;;;;;5027429;28;20232;-51
2021/03/15 01:21:12;;;;;;;12.83;3.50;;;5.10;99.90;;;;;;5038214;28;20482;-50
2021/03/15 01:24:05;;;;;;;13.20;3.03;;;5.10;99.90;;;;;;5028093;28;20242;-50
2021/03/15 01:26:32;;;;;;;16.03;3.10;;;5.10;99.90;;;;;;5026982;28;20565;-50
2021/03/15 01:29:00;;;;;;;13.07;2.90;;;5.20;99.90;;;;;;5029317;28;20477;-50
2021/03/15 01:31:28;;;;;;;13.17;2.53;;;5.20;99.90;;;;;;5029699;28;20687;-50
2021/03/15 01:33:56;;;;;;;11.40;2.53;;;5.20;99.90;;;;;;5029876;28;20479;-50
2021/03/15 01:36:23;;;;;;;13.47;3.03;;;5.10;99.90;;;;;;5011234;28;20274;-51
2021/03/15 01:38:51;;;;;;;14.57;3.10;;;5.10;99.90;;;;;;5010045;28;20247;-50
2021/03/15 01:41:18;;;;;;;12.70;3.07;;;5.10;99.90;;;;;;5021180;28;20315;-50
2021/03/15 01:43:46;;;;;;;13.57;3.13;;;5.10;99.90;;;;;;5020631;28;20256;-50
2021/03/15 01:46:13;;;;;;;13.90;3.07;;;5.10;99.90;;;;;;5026710;28;20493;-50
2021/03/15 01:48:41;;;;;;;12.83;3.10;;;5.10;99.90;;;;;;5028541;28;20478;-50
2021/03/15 01:51:09;;;;;;;15.50;3.10;;;5.10;99.90;;;;;;5029533;28;21001;-50
2021/03/15 01:53:37;;;;;;;13.30;3.27;;;5.10;99.90;;;;;;5029236;28;20238;-50
2021/03/15 01:56:06;;;;;;;14.57;2.90;;;5.10;99.90;;;;;;5029272;28;20494;-50
2021/03/15 01:58:33;;;;;;;12.37;3.47;;;5.10;99.90;;;;;;5029153;28;20867;-50
2021/03/15 02:01:00;;;;;;;9.37;3.20;;;5.10;99.90;;;;;;5028977;28;20298;-50
2021/03/15 02:03:29;;;;;;;13.57;3.23;;;5.10;99.90;;;;;;5033273;28;20474;-52
2021/03/15 02:05:57;;;;;;;14.33;3.70;;;5.10;99.90;;;;;;5036852;28;20489;-50
2021/03/15 02:08:25;;;;;;;17.47;3.30;;;5.10;99.90;;;;;;5037912;28;20268;-50
2021/03/15 02:10:52;;;;;;;12.53;3.20;;;5.10;99.90;;;;;;5041017;28;20238;-51
2021/03/15 02:13:45;;;;;;;15.53;3.77;;;5.10;99.90;;;;;;5043381;28;20478;-50
2021/03/15 02:16:22;;;;;;;10.33;3.50;;;5.10;99.90;;;;;;5040758;28;20476;-52
2021/03/15 02:19:07;;;;;;;13.67;3.33;;;5.10;99.90;;;;;;5048511;28;20485;-51
2021/03/15 02:22:17;;;;;;;13.53;3.20;;;5.10;99.90;;;;;;5048708;28;20498;-50
2021/03/15 02:25:26;;;;;;;15.67;3.90;;;5.10;99.90;;;;;;5016193;28;20340;-51
2021/03/15 02:28:37;;;;;;;9.63;3.30;;;5.10;99.90;;;;;;5028774;28;20886;-50
2021/03/15 02:31:36;;;;;;;16.80;3.57;;;5.10;99.90;;;;;;5008030;28;20479;-50
2021/03/15 02:34:46;;;;;;;12.00;3.60;;;5.10;99.90;;;;;;5036749;28;20244;-50
2021/03/15 02:37:19;;;;;;;14.60;3.90;;;5.10;99.90;;;;;;5018113;28;20247;-50
2021/03/15 02:39:51;;;;;;;11.27;3.40;;;5.10;99.90;;;;;;5028174;28;20292;-50
2021/03/15 02:42:22;;;;;;;15.43;3.60;;;5.10;99.90;;;;;;5021478;28;20888;-51
2021/03/15 02:44:53;;;;;;;13.70;4.30;;;5.10;99.90;;;;;;5028784;28;20479;-51
2021/03/15 02:47:25;;;;;;;10.13;3.80;;;5.10;99.90;;;;;;5010588;28;20480;-50
2021/03/15 02:49:59;;;;;;;15.00;4.67;;;5.00;99.90;;;;;;5008073;28;20464;-51
2021/03/15 02:52:27;;;;;;;14.67;3.70;;;5.00;99.90;;;;;;5018416;28;20274;-50
2021/03/15 02:54:56;;;;;;;13.30;4.20;;;5.00;99.90;;;;;;5040277;28;20714;-50
2021/03/15 02:57:24;;;;;;;15.97;4.57;;;5.00;99.90;;;;;;5048488;28;20472;-50
2021/03/15 02:59:53;;;;;;;16.23;4.57;;;5.00;99.90;;;;;;5039750;28;20816;-50
2021/03/15 03:02:23;;;;;;;10.83;4.23;;;5.00;99.90;;;;;;5034540;28;20672;-52
2021/03/15 03:04:50;;;;;;;16.00;4.07;;;5.00;99.90;;;;;;5029234;28;20818;-50
2021/03/15 03:07:22;;;;;;;16.73;4.50;;;4.90;99.90;;;;;;5036936;28;20509;-51
2021/03/15 03:09:50;;;;;;;8.57;3.67;;;5.00;99.90;;;;;;5042269;28;20547;-50
2021/03/15 03:12:18;;;;;;;9.23;3.43;;;5.00;99.90;;;;;;5044709;28;20886;-50
2021/03/15 03:14:47;;;;;;;8.93;3.43;;;4.90;99.90;;;;;;5036480;28;20894;-50
2021/03/15 03:17:15;;;;;;;13.63;4.13;;;5.00;99.90;;;;;;5028518;28;20255;-50
2021/03/15 03:19:48;;;;;;;9.17;3.67;;;4.90;99.90;;;;;;5028129;28;20570;-50
2021/03/15 03:22:18;;;;;;;6.73;3.50;;;5.00;99.90;;;;;;5012681;28;20496;-50
2021/03/15 03:24:47;;;;;;;10.00;4.10;;;4.90;99.90;;;;;;5015861;28;20463;-50
2021/03/15 03:27:16;;;;;;;10.33;3.80;;;4.90;99.90;;;;;;5028045;28;20232;-51
2021/03/15 03:29:46;;;;;;;11.13;3.57;;;4.90;99.90;;;;;;5027871;28;20484;-50
2021/03/15 03:32:14;;;;;;;13.73;3.60;;;4.90;99.90;;;;;;5012462;28;20537;-51
2021/03/15 03:34:42;;;;;;;8.50;3.30;;;4.90;99.90;;;;;;5012211;28;20335;-50
2021/03/15 03:37:09;;;;;;;10.03;3.03;;;4.80;99.90;;;;;;5023052;28;20973;-50
2021/03/15 03:39:37;;;;;;;8.93;3.10;;;4.80;99.90;;;;;;5019903;28;20996;-50
2021/03/15 03:42:07;;;;;;;8.87;3.30;;;4.80;99.90;;;;;;5035901;28;20477;-50
2021/03/15 03:44:34;;;;;;;9.60;3.57;;;4.80;99.90;;;;;;5051543;28;20294;-50
2021/03/15 03:47:01;;;;;;;12.73;4.10;;;4.70;99.90;;;;;;5018000;28;20504;-50
2021/03/15 03:49:30;;;;;;;7.10;3.40;;;4.80;99.90;;;;;;5018298;28;20479;-50
2021/03/15 03:52:01;;;;;;;7.67;3.67;;;4.70;99.90;;;;;;5033157;28;20497;-50
2021/03/15 03:54:40;;;;;;;7.53;3.40;;;4.70;99.90;;;;;;5031921;28;20539;-51
2021/03/15 03:57:11;;;;;;;11.30;3.40;;;4.70;99.90;;;;;;5031460;28;20483;-50
2021/03/15 03:59:44;;;;;;;8.10;4.37;;;4.70;99.90;;;;;;5030588;28;20220;-50
2021/03/15 04:02:13;;;;;;;8.17;3.17;;;4.70;99.90;;;;;;5030219;28;20540;-50
2021/03/15 04:04:45;;;;;;;6.27;3.27;;;4.70;99.90;;;;;;5040076;28;20502;-51
2021/03/15 04:07:19;;;;;;;7.97;3.30;;;4.80;99.90;;;;;;5049532;28;23220;-50
2021/03/15 04:09:52;;;;;;;7.33;3.50;;;4.70;99.90;;;;;;5034247;28;20503;-50
2021/03/15 04:12:21;;;;;;;8.33;3.00;;;4.70;99.90;;;;;;5011945;28;20649;-50
2021/03/15 04:14:52;;;;;;;6.53;3.43;;;4.70;99.90;;;;;;5011903;28;20534;-50
2021/03/15 04:17:24;;;;;;;6.33;2.97;;;4.70;99.90;;;;;;5011538;28;20468;-50
2021/03/15 04:19:57;;;;;;;4.97;2.87;;;4.70;99.90;;;;;;5017850;28;20237;-50
2021/03/15 04:22:28;;;;;;;7.27;3.23;;;4.70;99.90;;;;;;5041888;28;20486;-51
2021/03/15 04:25:01;;;;;;;5.47;2.80;;;4.60;99.90;;;;;;5042545;28;20474;-50
2021/03/15 04:27:30;;;;;;;5.73;2.97;;;4.60;99.90;;;;;;5030946;28;20642;-50
2021/03/15 04:29:59;;;;;;;5.87;3.03;;;4.70;99.90;;;;;;5030041;28;20301;-50
2021/03/15 04:32:27;;;;;;;6.23;2.83;;;4.60;99.90;;;;;;5030916;28;20467;-50
2021/03/15 04:34:55;;;;;;;5.67;3.23;;;4.70;99.90;;;;;;5030365;28;20672;-50
2021/03/15 04:37:25;;;;;;;4.17;2.73;;;4.70;99.90;;;;;;5026766;28;20498;-49
2021/03/15 04:39:55;;;;;;;6.47;3.20;;;4.70;99.90;;;;;;5031908;28;20302;-49
2021/03/15 04:42:23;;;;;;;6.23;3.33;;;4.70;99.90;;;;;;5050218;28;20240;-50
2021/03/15 04:44:51;;;;;;;6.23;3.60;;;4.70;99.90;;;;;;5051527;28;20484;-50
2021/03/15 04:47:19;;;;;;;8.20;3.70;;;4.80;99.90;;;;;;5051147;28;20990;-53
2021/03/15 04:49:48;;;;;;;5.73;3.27;;;4.80;99.90;;;;;;5035170;28;20547;-50
2021/03/15 04:52:16;;;;;;;7.73;3.70;;;4.70;99.90;;;;;;5010023;28;20499;-50
2021/03/15 04:54:44;;;;;;;7.70;3.23;;;4.80;99.90;;;;;;5023744;28;20483;-50
2021/03/15 04:57:15;;;;;;;7.37;3.40;;;4.70;99.90;;;;;;5040236;28;20486;-50
2021/03/15 04:59:43;;;;;;;6.60;3.20;;;4.80;99.90;;;;;;5029155;28;20552;-51
2021/03/15 05:02:11;;;;;;;7.37;3.50;;;4.80;99.90;;;;;;5032673;28;20572;-50
2021/03/15 05:04:40;;;;;;;7.73;3.33;;;4.70;99.90;;;;;;5037364;28;20232;-51
2021/03/15 05:07:11;;;;;;;7.67;3.30;;;4.80;99.90;;;;;;5030225;28;20819;-50
2021/03/15 05:09:51;;;;;;;5.73;3.40;;;4.80;99.90;;;;;;5027795;28;20498;-51
2021/03/15 05:12:20;;;;;;;8.37;3.50;;;4.80;99.90;;;;;;5027110;28;20533;-52
2021/03/15 05:14:49;;;;;;;7.50;3.63;;;4.80;99.90;;;;;;5029429;28;20482;-50
2021/03/15 05:17:17;;;;;;;9.27;3.50;;;4.80;99.90;;;;;;5033182;28;20556;-50
2021/03/15 05:19:45;;;;;;;10.53;4.27;;;4.80;99.90;;;;;;5028383;28;20506;-51
2021/03/15 05:22:13;;;;;;;7.57;3.97;;;4.80;99.90;;;;;;5035582;28;20455;-51
2021/03/15 05:24:42;;;;;;;12.77;4.37;;;4.80;99.90;;;;;;5026823;28;20795;-50
2021/03/15 05:27:11;;;;;;;11.07;4.47;;;4.80;99.90;;;;;;5020793;28;21013;-50
2021/03/15 05:29:41;;;;;;;10.20;4.70;;;4.80;99.90;;;;;;5034083;28;20487;-52
2021/03/15 05:32:13;;;;;;;16.63;4.90;;;4.80;99.90;;;;;;5018905;28;20724;-50
2021/03/15 05:34:42;;;;;;;13.40;5.47;;;4.90;99.90;;;;;;5021511;28;20565;-50
2021/03/15 05:37:10;;;;;;;13.20;5.57;;;4.90;99.90;;;;;;5024527;28;20487;-50
2021/03/15 05:39:38;;;;;;;12.87;5.70;;;4.90;99.90;;;;;;5023890;28;20590;-51
2021/03/15 05:42:23;;;;;;;16.53;5.93;;;4.90;99.90;;;;;;5034740;28;20554;-50
2021/03/15 05:45:10;;;;;;;10.37;5.43;;;4.90;99.90;;;;;;5025807;28;20485;-50
2021/03/15 05:48:03;;;;;;;11.77;5.43;;;4.90;99.90;;;;;;5021936;28;20889;-50
2021/03/15 05:50:57;;;;;;;11.43;4.57;;;5.00;99.90;;;;;;5024567;28;20236;-50
2021/03/15 05:54:17;;;;;;;12.37;5.30;;;5.00;99.90;;;;;;5033142;28;20541;-52
2021/03/15 05:57:11;;;;;;;11.80;5.57;;;5.10;99.90;;;;;;5029630;28;20314;-50
2021/03/15 06:00:07;;;;;;;13.23;5.93;;;5.00;99.90;;;;;;5027931;28;20882;-50
2021/03/15 06:03:00;;;;;;;19.53;5.97;;;5.10;99.90;;;;;;5041033;28;20243;-50
2021/03/15 06:05:28;;;;;;;12.67;5.10;;;5.00;99.90;;;;;;5048634;28;20473;-51
2021/03/15 06:08:06;;;;;;;13.57;5.33;;;5.00;99.90;;;;;;5029190;28;20470;-51
2021/03/15 06:11:04;;;;;;;15.47;5.70;;;5.10;99.90;;;;;;5026779;28;20240;-50
2021/03/15 06:13:33;;;;;;;15.63;4.97;;;5.10;99.90;;;;;;5023509;28;20229;-50
2021/03/15 06:16:03;;;;;;;13.07;4.87;;;5.10;99.90;;;;;;5025039;28;20484;-52
2021/03/15 06:18:32;;;;;;;14.50;5.23;;;5.10;99.90;;;;;;5026204;28;20518;-52
2021/03/15 06:21:01;;;;;;;9.60;4.73;;;5.10;99.90;;;;;;5020446;28;20749;-50
2021/03/15 06:23:29;;;;;;;14.50;4.33;;;5.10;99.90;;;;;;5028539;28;21004;-50
2021/03/15 06:25:57;;;;;;;12.50;4.80;;;5.10;99.90;;;;;;5011820;28;20294;-50
2021/03/15 06:28:25;;;;;;;12.07;4.87;;;5.00;99.90;;;;;;5028642;28;20479;-50
2021/03/15 06:30:54;;;;;;;10.93;4.00;;;5.10;99.90;;;;;;5023967;28;20254;-51
2021/03/15 06:33:24;;;;;;;14.33;4.20;;;5.10;99.90;;;;;;5019200;28;20232;-50
2021/03/15 06:35:57;;;;;;;9.33;4.40;;;5.10;99.90;;;;;;5025785;28;20483;-50
2021/03/15 06:38:28;;;;;;;12.63;4.63;;;5.00;99.90;;;;;;5020590;28;20486;-52
2021/03/15 06:41:00;;;;;;;14.20;4.13;;;5.00;99.90;;;;;;5018761;28;20525;-50
2021/03/15 06:43:29;;;;;;;14.80;3.97;;;5.00;99.90;;;;;;5024655;28;20482;-50
2021/03/15 06:45:57;;;;;;;12.17;4.23;;;5.10;99.90;;;;;;5009603;28;20506;-52
2021/03/15 06:48:26;;;;;;;9.47;3.63;;;5.10;99.90;;;;;;5007928;28;20324;-50
2021/03/15 06:50:56;;;;;;;11.50;3.30;;;5.10;99.90;;;;;;5019784;28;20474;-50
2021/03/15 06:53:25;;;;;;;9.53;3.50;;;5.10;99.90;;;;;;5026280;28;20989;-50
2021/03/15 06:55:53;;;;;;;13.57;3.60;;;5.10;99.90;;;;;;5031719;28;20540;-50
2021/03/15 06:58:30;;;;;;;9.87;3.50;;;5.20;99.90;;;;;;5039971;28;20485;-51
2021/03/15 07:01:15;;;;;;;15.17;4.03;;;5.20;99.90;;;;;;5027723;28;20479;-50
2021/03/15 07:03:45;;;;;;;11.77;3.90;;;5.20;99.90;;;;;;5008963;28;20542;-50
2021/03/15 07:06:14;;;;;;;14.33;4.17;;;5.20;99.90;;;;;;5016444;28;20509;-53
2021/03/15 07:08:42;;;;;;;14.07;4.40;;;5.20;99.90;;;;;;5027328;28;20906;-50
2021/03/15 07:11:28;;;;;;;12.07;4.57;;;5.20;99.90;;;;;;5011123;28;20240;-51
2021/03/15 07:13:56;;;;;;;9.27;4.57;;;5.20;99.90;;;;;;5027846;28;20485;-50
2021/03/15 07:16:30;;;;;;;7.30;3.97;;;5.20;99.90;;;;;;5031397;28;20294;-50
2021/03/15 07:19:02;;;;;;;12.77;4.53;;;5.20;99.90;;;;;;5028092;28;20487;-50
2021/03/15 07:21:39;;;;;;;10.97;4.00;;;5.20;99.90;;;;;;5012670;28;20561;-51
2021/03/15 07:24:11;;;;;;;13.40;4.33;;;5.10;99.90;;;;;;5012615;28;20542;-51
2021/03/15 07:26:43;;;;;;;13.97;4.50;;;5.20;99.90;;;;;;5023329;28;20508;-50
2021/03/15 07:29:14;;;;;;;11.83;4.40;;;5.20;99.90;;;;;;5026996;28;20519;-51
2021/03/15 07:31:45;;;;;;;15.30;4.40;;;5.20;99.90;;;;;;5024992;28;20539;-51
2021/03/15 07:34:17;;;;;;;11.73;4.00;;;5.20;99.90;;;;;;5029815;28;20476;-51
2021/03/15 07:36:56;;;;;;;16.27;4.87;;;5.20;99.90;;;;;;5021500;28;20483;-53
2021/03/15 07:39:27;;;;;;;12.77;4.10;;;5.20;99.90;;;;;;5030744;28;20506;-50
2021/03/15 07:41:57;;;;;;;10.47;3.37;;;5.20;99.90;;;;;;5032106;28;20509;-50
2021/03/15 07:44:27;;;;;;;11.67;3.47;;;5.30;99.90;;;;;;5032044;28;20250;-51
2021/03/15 07:46:56;;;;;;;11.30;4.17;;;5.30;99.90;;;;;;5029318;28;20555;-51
2021/03/15 07:49:28;;;;;;;10.23;3.60;;;5.40;99.90;;;;;;5034696;28;20536;-50
2021/03/15 07:52:00;;;;;;;12.63;4.03;;;5.40;99.90;;;;;;5034113;28;21134;-50
2021/03/15 07:54:31;;;;;;;8.40;4.10;;;5.40;99.90;;;;;;5039584;28;20490;-51
2021/03/15 07:57:17;;;;;;;12.37;4.50;;;5.40;99.90;;;;;;5038095;28;20322;-50
2021/03/15 07:59:47;;;;;;;11.17;4.00;;;5.40;99.90;;;;;;5040990;28;20489;-52
2021/03/15 08:02:19;;;;;;;11.83;3.90;;;5.50;99.90;;;;;;5029509;28;20232;-50
2021/03/15 08:04:48;;;;;;;16.37;4.70;;;5.50;99.90;;;;;;5029895;28;20562;-51
2021/03/15 08:07:18;;;;;;;11.93;4.90;;;5.50;99.90;;;;;;5040935;28;20461;-50
2021/03/15 08:09:48;;;;;;;14.53;4.60;;;5.50;99.90;;;;;;5048991;28;20478;-50
2021/03/15 08:12:17;;;;;;;15.40;4.80;;;5.50;99.90;;;;;;5050687;28;20881;-50
2021/03/15 08:14:47;;;;;;;15.20;4.17;;;5.60;99.90;;;;;;5050281;28;20884;-51
2021/03/15 08:17:19;;;;;;;13.80;4.27;;;5.60;99.90;;;;;;5028950;28;20696;-51
2021/03/15 08:19:48;;;;;;;12.23;4.23;;;5.60;99.90;;;;;;5010561;28;20491;-50
2021/03/15 08:22:25;;;;;;;11.93;4.10;;;5.70;99.90;;;;;;5011946;28;20696;-50
2021/03/15 08:24:57;;;;;;;12.57;3.90;;;5.80;99.90;;;;;;5025046;28;20485;-51
2021/03/15 08:27:29;;;;;;;14.77;3.93;;;5.80;99.90;;;;;;5023921;28;20537;-50
2021/03/15 08:30:00;;;;;;;10.43;3.80;;;5.80;99.90;;;;;;5023861;28;20487;-50
2021/03/15 08:32:34;;;;;;;10.20;3.43;;;5.80;99.90;;;;;;5018141;28;20236;-51
2021/03/15 08:35:05;;;;;;;11.23;3.83;;;5.90;99.90;;;;;;5005766;28;20240;-51
2021/03/15 08:37:55;;;;;;;12.93;3.37;;;5.90;99.90;;;;;;5011714;28;20483;-53
2021/03/15 08:41:00;;;;;;;12.77;2.90;;;5.90;99.90;;;;;;5009967;28;20244;-50
2021/03/15 08:43:43;;;;;;;14.80;2.80;;;5.90;99.90;;;;;;4988685;28;20425;-51
2021/03/15 08:46:17;;;;;;;9.73;2.33;;;5.90;99.90;;;;;;5005507;28;20305;-50
2021/03/15 08:49:01;;;;;;;9.47;2.10;;;5.90;99.90;;;;;;5002632;28;20243;-50
2021/03/15 08:51:49;;;;;;;13.70;2.70;;;5.80;99.90;;;;;;5024776;28;20466;-50
2021/03/15 08:54:38;;;;;;;13.13;2.57;;;5.90;99.90;;;;;;5029981;28;20529;-53
2021/03/15 08:57:09;;;;;;;11.67;2.10;;;6.00;99.90;;;;;;5020515;28;21013;-50
2021/03/15 08:59:37;;;;;;;12.47;2.20;;;6.00;99.90;;;;;;5010329;28;20491;-51
2021/03/15 09:02:05;;;;;;;12.13;2.07;;;6.00;99.90;;;;;;5011127;28;20233;-50
2021/03/15 09:04:43;;;;;;;14.30;2.80;;;6.10;99.90;;;;;;5013232;28;20264;-50
2021/03/15 09:07:35;;;;;;;13.03;2.17;;;6.10;99.90;;;;;;5022907;28;20471;-50
2021/03/15 09:10:37;;;;;;;14.00;2.10;;;6.30;99.90;;;;;;5010863;28;20244;-51
2021/03/15 09:13:30;;;;;;;14.33;3.23;;;6.50;99.90;;;;;;4930616;29;20572;-50
2021/03/15 09:16:01;;;;;;;11.77;2.23;;;6.60;99.90;;;;;;5017542;28;20245;-50
2021/03/15 09:18:51;;;;;;;12.53;2.37;;;6.70;99.90;;;;;;5010073;28;20245;-50
2021/03/15 09:21:50;;;;;;;13.00;2.27;;;6.70;99.90;;;;;;5018109;28;20647;-50
2021/03/15 09:24:48;;;;;;;15.47;3.20;;;6.70;99.90;;;;;;5025980;28;20502;-51
2021/03/15 09:27:37;;;;;;;16.40;2.57;;;6.90;99.90;;;;;;5028700;28;20286;-50
2021/03/15 09:30:11;;;;;;;14.80;2.87;;;7.00;99.90;;;;;;5049807;28;20965;-50
2021/03/15 09:32:42;;;;;;;14.50;2.90;;;7.00;99.90;;;;;;5011697;28;20244;-50
2021/03/15 09:35:20;;;;;;;16.63;4.03;;;7.00;99.90;;;;;;5023731;28;20408;-50
2021/03/15 09:37:52;;;;;;;15.77;3.23;;;6.90;99.90;;;;;;5009587;28;20678;-51
2021/03/15 09:40:24;;;;;;;17.10;2.73;;;6.90;99.90;;;;;;5012293;28;20231;-49
2021/03/15 09:42:52;;;;;;;19.07;3.03;;;7.00;99.90;;;;;;5022894;28;20241;-50
2021/03/15 09:45:34;;;;;;;17.10;2.87;;;7.00;99.90;;;;;;5024918;28;20256;-51
2021/03/15 09:48:17;;;;;;;13.93;2.80;;;6.90;99.90;;;;;;5042882;28;20235;-51
2021/03/15 09:50:47;;;;;;;14.60;2.63;;;6.80;99.90;;;;;;5047242;28;20283;-50
2021/03/15 09:53:19;;;;;;;17.57;3.00;;;6.80;99.90;;;;;;5054299;28;20681;-51
2021/03/15 09:56:04;;;;;;;18.83;3.50;;;6.80;99.90;;;;;;5026256;28;20228;-50
2021/03/15 09:58:37;;;;;;;14.50;2.63;;;6.70;99.90;;;;;;5029047;28;20247;-50
2021/03/15 10:01:10;;;;;;;18.37;3.30;;;6.70;99.90;;;;;;5026321;28;20243;-50
2021/03/15 10:03:58;;;;;;;18.03;3.30;;;7.00;99.90;;;;;;5043704;28;20844;-50
2021/03/15 10:06:58;;;;;;;21.97;3.10;;;7.10;99.90;;;;;;5007093;28;20276;-50
2021/03/15 10:10:08;;;;;;;16.30;2.80;;;7.20;99.90;;;;;;5016702;28;20229;-50
2021/03/15 10:13:08;;;;;;;20.13;3.03;;;7.40;99.90;;;;;;4956953;28;20257;-50
2021/03/15 10:15:45;;;;;;;13.30;2.57;;;7.40;99.90;;;;;;5026483;28;20244;-50
2021/03/15 10:18:24;;;;;;;16.57;3.57;;;7.50;99.90;;;;;;5044171;28;20263;-50
2021/03/15 10:20:57;;;;;;;17.47;3.63;;;7.70;99.90;;;;;;5033333;28;20233;-50
2021/03/15 10:23:32;;;;;;;19.00;3.73;;;8.00;99.90;;;;;;5028999;28;20324;-50
2021/03/15 10:26:05;;;;;;;19.87;3.00;;;7.90;99.90;;;;;;5032660;28;20240;-50
2021/03/15 10:28:53;;;;;;;20.87;3.40;;;7.80;99.90;;;;;;5031935;28;20580;-50
2021/03/15 10:31:32;;;;;;;23.80;3.23;;;7.70;99.90;;;;;;5039611;28;20241;-50
2021/03/15 10:34:02;;;;;;;14.03;3.23;;;7.60;99.90;;;;;;5023614;28;20245;-52
2021/03/15 10:36:43;;;;;;;17.13;3.30;;;7.70;99.90;;;;;;5041477;28;20239;-50
2021/03/15 10:39:28;;;;;;;15.20;3.07;;;8.20;99.90;;;;;;5035546;28;20730;-50
2021/03/15 10:42:00;;;;;;;19.50;3.57;;;8.30;99.90;;;;;;5031131;28;20263;-52
2021/03/15 10:44:35;;;;;;;18.70;3.37;;;8.50;99.90;;;;;;5025960;28;20236;-51
2021/03/15 10:47:08;;;;;;;19.07;3.20;;;8.90;99.90;;;;;;5046324;28;20236;-50
2021/03/15 10:49:42;;;;;;;19.07;4.00;;;8.50;99.90;;;;;;5031154;28;20312;-50
2021/03/15 10:52:43;;;;;;;21.17;3.53;;;8.30;99.90;;;;;;5004268;28;20236;-50
2021/03/15 10:55:20;;;;;;;23.67;3.17;;;8.10;99.90;;;;;;5028033;28;20233;-51
2021/03/15 10:58:07;;;;;;;15.30;3.20;;;8.30;99.90;;;;;;5020534;28;20924;-50
2021/03/15 11:00:44;;;;;;;22.33;3.50;;;8.50;99.90;;;;;;5047472;28;20329;-51
2021/03/15 11:03:22;;;;;;;25.93;3.90;;;8.20;99.90;;;;;;5027631;28;20319;-50
2021/03/15 11:06:06;;;;;;;17.47;3.47;;;8.00;99.90;;;;;;5036007;28;20312;-50
2021/03/15 11:08:34;;;;;;;17.27;3.03;;;8.00;99.90;;;;;;5027710;28;20241;-50
2021/03/15 11:11:15;;;;;;;19.00;4.10;;;8.00;99.90;;;;;;5029788;28;20236;-51
2021/03/15 11:13:48;;;;;;;18.07;3.20;;;7.80;99.90;;;;;;5040465;28;20262;-50
2021/03/15 11:16:19;;;;;;;17.20;3.70;;;7.50;99.90;;;;;;5023895;28;20256;-50
2021/03/15 11:18:48;;;;;;;19.67;4.07;;;7.50;99.90;;;;;;5039673;28;20943;-50
2021/03/15 11:21:16;;;;;;;25.83;3.67;;;7.40;99.90;;;;;;5024489;28;20311;-50
2021/03/15 11:23:53;;;;;;;17.80;3.90;;;7.20;99.90;;;;;;5043113;28;20240;-50
2021/03/15 11:26:56;;;;;;;15.30;3.37;;;7.00;99.90;;;;;;5041934;28;20243;-50
2021/03/15 11:29:37;;;;;;;17.70;3.37;;;6.90;99.90;;;;;;5029230;28;20244;-50
2021/03/15 11:32:15;;;;;;;14.70;3.23;;;6.90;99.90;;;;;;5041914;28;20252;-50
2021/03/15 11:34:53;;;;;;;19.73;3.47;;;6.90;99.90;;;;;;5024719;28;20240;-50
2021/03/15 11:37:26;;;;;;;24.27;4.07;;;6.90;99.90;;;;;;5028683;28;20245;-50
2021/03/15 11:40:00;;;;;;;15.37;3.13;;;6.90;99.90;;;;;;5021057;28;20271;-49
2021/03/15 11:42:37;;;;;;;17.40;2.83;;;6.80;99.90;;;;;;5036435;28;20232;-50
2021/03/15 11:45:11;;;;;;;18.70;3.60;;;6.70;99.90;;;;;;5031535;28;20241;-51
2021/03/15 11:47:46;;;;;;;17.07;3.10;;;6.60;99.90;;;;;;5029929;28;20242;-50
2021/03/15 11:50:23;;;;;;;15.07;2.40;;;6.60;99.90;;;;;;5019444;28;20240;-50
2021/03/15 11:53:03;;;;;;;12.30;2.50;;;6.50;99.90;;;;;;5027889;28;20225;-49
2021/03/15 11:55:35;;;;;;;8.67;1.90;;;6.40;99.90;;;;;;5043752;28;20719;-49
2021/03/15 11:58:04;;;;;;;8.77;2.03;;;6.50;99.90;;;;;;5030315;28;20316;-50
2021/03/15 12:00:32;;;;;;;13.00;2.17;;;6.60;99.90;;;;;;5037586;28;20237;-50
2021/03/15 12:03:39;;;;;;;14.53;2.90;;;6.70;99.90;;;;;;5008656;28;20332;-49
2021/03/15 12:06:31;;;;;;;11.67;2.47;;;6.80;99.90;;;;;;5041348;28;20232;-49
2021/03/15 12:09:11;;;;;;;19.40;2.83;;;6.80;99.90;;;;;;5037056;28;20252;-49
2021/03/15 12:11:41;;;;;;;15.80;3.07;;;6.80;99.90;;;;;;5018551;28;20248;-50
2021/03/15 12:14:10;;;;;;;10.67;2.63;;;6.70;99.90;;;;;;5018356;28;21171;-49
2021/03/15 12:16:45;;;;;;;7.00;1.47;;;6.50;99.90;;;;;;5035584;28;21581;-50
2021/03/15 12:19:15;;;;;;;6.73;1.70;;;6.30;99.90;;;;;;5017877;28;20488;-50
2021/03/15 12:21:48;;;;;;;2.00;0.80;;;6.20;99.90;;;;;;5016445;28;20467;-50
2021/03/15 12:24:29;;;;;;;2.93;0.83;;;6.20;99.90;;;;;;5039198;28;20992;-51
2021/03/15 12:26:56;;;;;;;4.10;0.90;;;6.30;99.90;;;;;;5009425;28;20700;-49
2021/03/15 12:29:29;;;;;;;3.87;1.10;;;6.40;99.90;;;;;;5020609;28;20244;-49
2021/03/15 12:31:56;;;;;;;1.60;0.60;;;6.60;99.90;;;;;;5034024;28;20297;-50
2021/03/15 12:34:28;;;;;;;4.17;1.10;;;6.70;99.90;;;;;;5012096;28;20275;-51
2021/03/15 12:36:59;;;;;;;3.97;0.90;;;6.80;99.90;;;;;;5039338;28;20239;-50
2021/03/15 12:39:28;;;;;;;2.07;0.60;;;6.80;99.90;;;;;;5028235;28;20931;-50
2021/03/15 12:42:02;;;;;;;1.87;0.80;;;6.70;99.90;;;;;;5022922;28;20893;-49
2021/03/15 12:44:39;;;;;;;2.20;0.80;;;6.70;99.90;;;;;;5038323;28;20311;-50
2021/03/15 12:47:09;;;;;;;2.30;0.80;;;6.80;99.90;;;;;;5031970;28;20313;-50
2021/03/15 12:49:40;;;;;;;2.90;0.97;;;6.70;99.90;;;;;;5026212;28;20326;-50
2021/03/15 12:52:14;;;;;;;3.50;0.90;;;6.70;99.90;;;;;;5024049;28;20247;-50
2021/03/15 12:54:58;;;;;;;6.10;1.07;;;6.60;99.90;;;;;;5025619;28;20251;-50
2021/03/15 12:57:25;;;;;;;2.97;0.80;;;6.70;99.90;;;;;;5028273;28;20243;-50
2021/03/15 13:00:01;;;;;;;5.97;1.13;;;6.70;99.90;;;;;;5044583;28;20475;-51
2021/03/15 13:02:37;;;;;;;4.90;1.00;;;6.80;99.90;;;;;;5031513;28;20235;-51
2021/03/15 13:05:07;;;;;;;5.97;1.20;;;6.90;99.90;;;;;;5030986;28;21013;-50
2021/03/15 13:07:55;;;;;;;4.30;1.10;;;7.00;99.90;;;;;;5030267;28;20244;-50
2021/03/15 13:10:45;;;;;;;4.53;1.10;;;6.90;99.90;;;;;;5022411;28;20264;-50
2021/03/15 13:13:13;;;;;;;4.13;1.00;;;6.90;99.90;;;;;;5043804;28;20753;-51
2021/03/15 13:15:56;;;;;;;7.33;1.77;;;6.80;99.90;;;;;;5036489;28;20240;-50
2021/03/15 13:18:25;;;;;;;6.03;1.53;;;6.80;99.90;;;;;;5027254;28;20286;-49
2021/03/15 13:20:59;;;;;;;6.60;1.40;;;6.80;99.90;;;;;;5041474;28;20761;-49
2021/03/15 13:23:26;;;;;;;6.67;1.77;;;6.70;99.90;;;;;;5030408;28;20244;-50
2021/03/15 13:26:02;;;;;;;7.00;1.53;;;6.70;99.90;;;;;;5030688;28;21060;-51
2021/03/15 13:28:43;;;;;;;6.60;1.57;;;6.70;99.90;;;;;;5010128;28;20496;-49